createdAt,value
2022-08-07T00:00:25.625Z,14.40
2022-08-07T00:02:53.824Z,14.30
2022-08-07T00:05:21.268Z,14.40
2022-08-07T00:07:59.821Z,14.40
2022-08-07T00:10:31.107Z,14.40
2022-08-07T00:13:02.204Z,14.40
2022-08-07T00:15:38.028Z,14.50
2022-08-07T00:18:20.200Z,14.40
2022-08-07T00:20:51.544Z,14.40
2022-08-07T00:23:21.404Z,14.40
2022-08-07T00:25:52.436Z,14.40
2022-08-07T00:28:33.712Z,14.40
2022-08-07T00:31:04.560Z,14.40
2022-08-07T00:33:34.387Z,14.40
2022-08-07T00:36:01.422Z,14.40
2022-08-07T00:38:31.781Z,14.40
2022-08-07T00:41:00.624Z,14.40
2022-08-07T00:43:59.801Z,14.40
2022-08-07T00:46:14.517Z,14.40
2022-08-07T00:48:42.265Z,14.40
2022-08-07T00:51:10.393Z,14.40
2022-08-07T00:53:39.262Z,14.40
2022-08-07T00:56:18.417Z,14.50
2022-08-07T00:58:47.495Z,14.50
2022-08-07T01:01:17.665Z,14.50
2022-08-07T01:03:55.766Z,14.50
2022-08-07T01:06:28.434Z,14.40
2022-08-07T01:08:58.417Z,14.50
2022-08-07T01:12:23.356Z,14.50
2022-08-07T01:14:16.580Z,14.50
2022-08-07T01:16:47.226Z,14.60
2022-08-07T01:19:19.000Z,14.60
2022-08-07T01:21:53.072Z,14.60
2022-08-07T01:24:22.248Z,14.60
2022-08-07T01:26:51.863Z,14.60
2022-08-07T01:29:20.489Z,14.60
2022-08-07T01:31:49.499Z,14.60
2022-08-07T01:34:18.792Z,14.60
2022-08-07T01:36:52.760Z,14.60
2022-08-07T01:39:40.591Z,14.60
2022-08-07T01:42:38.373Z,14.60
2022-08-07T01:44:55.537Z,14.70
2022-08-07T01:48:18.926Z,14.60
2022-08-07T01:50:09.737Z,14.60
2022-08-07T01:52:39.362Z,14.60
2022-08-07T01:55:22.191Z,14.60
2022-08-07T01:58:06.743Z,14.60
2022-08-07T02:00:45.339Z,14.60
2022-08-07T02:03:26.258Z,14.60
2022-08-07T02:06:02.491Z,14.60
2022-08-07T02:08:41.026Z,14.70
2022-08-07T02:11:11.037Z,14.70
2022-08-07T02:14:02.369Z,14.70
2022-08-07T02:16:33.363Z,14.70
2022-08-07T02:19:05.523Z,14.70
2022-08-07T02:21:55.820Z,14.60
2022-08-07T02:24:24.802Z,14.80
2022-08-07T02:26:52.705Z,15.00
2022-08-07T02:29:21.889Z,14.90
2022-08-07T02:31:50.507Z,15.00
2022-08-07T02:34:18.972Z,15.10
2022-08-07T02:36:46.069Z,15.10
2022-08-07T02:39:17.483Z,15.10
2022-08-07T02:42:02.333Z,15.10
2022-08-07T02:44:34.779Z,15.10
2022-08-07T02:47:05.034Z,15.10
2022-08-07T02:49:58.806Z,15.10
2022-08-07T02:52:32.018Z,15.20
2022-08-07T02:55:03.771Z,15.20
2022-08-07T02:57:34.980Z,15.10
2022-08-07T03:00:04.923Z,15.20
2022-08-07T03:02:33.757Z,15.20
2022-08-07T03:05:05.189Z,15.20
2022-08-07T03:08:04.712Z,15.20
2022-08-07T03:10:23.454Z,15.20
2022-08-07T03:12:51.907Z,15.20
2022-08-07T03:15:30.385Z,15.20
2022-08-07T03:18:06.604Z,15.20
2022-08-07T03:20:34.209Z,15.20
2022-08-07T03:23:03.048Z,15.20
2022-08-07T03:25:40.084Z,15.20
2022-08-07T03:28:37.353Z,15.20
2022-08-07T03:31:18.029Z,15.20
2022-08-07T03:33:48.593Z,15.20
2022-08-07T03:36:19.102Z,15.30
2022-08-07T03:38:47.804Z,15.30
2022-08-07T03:41:16.065Z,15.30
2022-08-07T03:43:43.998Z,15.20
2022-08-07T03:46:24.521Z,15.20
2022-08-07T03:49:03.005Z,15.30
2022-08-07T03:51:47.493Z,15.30
2022-08-07T03:54:36.436Z,15.30
2022-08-07T03:57:07.418Z,15.40
2022-08-07T03:59:34.663Z,15.30
2022-08-07T04:02:02.114Z,15.20
2022-08-07T04:04:29.149Z,15.30
2022-08-07T04:07:00.184Z,15.30
2022-08-07T04:09:44.506Z,15.40
2022-08-07T04:12:27.948Z,15.30
2022-08-07T04:14:58.191Z,15.40
2022-08-07T04:18:30.934Z,15.40
2022-08-07T04:20:14.588Z,15.50
2022-08-07T04:22:53.519Z,15.50
2022-08-07T04:25:23.543Z,15.60
2022-08-07T04:27:59.047Z,15.60
2022-08-07T04:30:43.691Z,15.60
2022-08-07T04:33:15.710Z,15.70
2022-08-07T04:35:50.463Z,15.80
2022-08-07T04:38:18.761Z,15.80
2022-08-07T04:40:51.954Z,15.80
2022-08-07T04:43:53.565Z,15.80
2022-08-07T04:46:34.806Z,15.90
2022-08-07T04:49:38.779Z,16.00
2022-08-07T04:52:09.100Z,16.20
2022-08-07T04:54:50.564Z,16.30
2022-08-07T04:58:12.485Z,16.40
2022-08-07T05:00:37.826Z,16.40
2022-08-07T05:04:00.334Z,16.50
2022-08-07T05:06:29.080Z,16.70
2022-08-07T05:09:42.924Z,16.80
2022-08-07T05:12:15.561Z,16.90
2022-08-07T05:15:04.459Z,16.90
2022-08-07T05:17:52.290Z,16.90
2022-08-07T05:20:26.791Z,17.10
2022-08-07T05:22:59.615Z,17.20
2022-08-07T05:25:54.424Z,17.20
2022-08-07T05:28:23.034Z,17.30
2022-08-07T05:30:55.421Z,17.30
2022-08-07T05:33:23.832Z,17.30
2022-08-07T05:35:53.544Z,17.30
2022-08-07T05:39:01.457Z,17.40
2022-08-07T05:41:14.054Z,17.30
2022-08-07T05:44:08.381Z,17.20
2022-08-07T05:46:34.935Z,17.30
2022-08-07T05:49:11.606Z,17.30
2022-08-07T05:51:43.589Z,17.20
2022-08-07T05:54:30.971Z,17.20
2022-08-07T05:56:59.075Z,17.10
2022-08-07T05:59:27.500Z,17.00
2022-08-07T06:01:58.180Z,16.90
2022-08-07T06:04:29.941Z,16.80
2022-08-07T06:07:03.672Z,16.70
2022-08-07T06:10:04.244Z,16.70
2022-08-07T06:12:31.903Z,16.80
2022-08-07T06:15:05.352Z,16.90
2022-08-07T06:17:38.031Z,17.00
2022-08-07T06:20:12.261Z,17.40
2022-08-07T06:22:42.132Z,17.30
2022-08-07T06:25:34.766Z,17.00
2022-08-07T06:28:10.489Z,17.20
2022-08-07T06:30:45.899Z,17.40
2022-08-07T06:33:16.151Z,17.70
2022-08-07T06:35:47.731Z,17.50
2022-08-07T06:38:30.845Z,17.60
2022-08-07T06:41:00.377Z,17.80
2022-08-07T06:43:39.251Z,17.80
2022-08-07T06:46:12.389Z,17.90
2022-08-07T06:48:41.964Z,17.80
2022-08-07T06:51:31.106Z,18.30
2022-08-07T06:55:28.865Z,18.30
2022-08-07T06:56:55.331Z,18.40
2022-08-07T07:00:14.716Z,18.60
2022-08-07T07:02:48.144Z,18.50
2022-08-07T07:05:08.548Z,18.70
2022-08-07T07:07:59.963Z,18.40
2022-08-07T07:10:33.459Z,18.80
2022-08-07T07:13:55.669Z,19.10
2022-08-07T07:16:20.278Z,19.10
2022-08-07T07:18:59.465Z,19.60
2022-08-07T07:21:40.414Z,19.50
2022-08-07T07:24:17.546Z,19.40
2022-08-07T07:26:51.747Z,19.80
2022-08-07T07:29:38.674Z,19.70
2022-08-07T07:32:14.464Z,19.90
2022-08-07T07:34:46.617Z,20.60
2022-08-07T07:37:45.230Z,20.10
2022-08-07T07:40:14.535Z,20.00
2022-08-07T07:42:47.227Z,20.70
2022-08-07T07:45:24.569Z,20.80
2022-08-07T07:48:11.219Z,21.30
2022-08-07T07:50:40.191Z,21.60
2022-08-07T07:53:13.723Z,21.00
2022-08-07T07:55:57.963Z,20.30
2022-08-07T07:58:37.093Z,21.20
2022-08-07T08:02:02.085Z,21.70
2022-08-07T08:04:10.573Z,21.60
2022-08-07T08:06:50.980Z,20.80
2022-08-07T08:09:24.144Z,21.00
2022-08-07T08:12:02.335Z,21.60
2022-08-07T08:14:36.249Z,20.50
2022-08-07T08:17:56.059Z,21.80
2022-08-07T08:20:18.464Z,22.50
2022-08-07T08:23:08.461Z,22.20
2022-08-07T08:26:04.583Z,22.00
2022-08-07T08:28:38.474Z,20.70
2022-08-07T08:31:16.085Z,20.80
2022-08-07T08:33:55.481Z,22.90
2022-08-07T08:36:30.333Z,23.50
2022-08-07T08:39:01.884Z,23.90
2022-08-07T08:41:57.850Z,23.90
2022-08-07T08:44:41.162Z,23.30
2022-08-07T08:47:34.438Z,22.00
2022-08-07T08:50:40.021Z,22.00
2022-08-07T08:53:35.732Z,23.20
2022-08-07T08:56:12.110Z,23.40
2022-08-07T08:59:06.651Z,22.90
2022-08-07T09:02:13.283Z,23.50
2022-08-07T09:05:06.432Z,24.30
2022-08-07T09:07:46.173Z,24.00
2022-08-07T09:10:19.102Z,25.20
2022-08-07T09:12:53.716Z,25.90
2022-08-07T09:16:23.065Z,26.10
2022-08-07T09:19:44.774Z,25.40
2022-08-07T09:24:55.046Z,23.40
2022-08-07T09:26:08.992Z,24.40
2022-08-07T09:30:02.337Z,25.10
2022-08-07T09:31:50.116Z,23.50
2022-08-07T09:34:26.169Z,24.00
2022-08-07T09:37:01.745Z,24.80
2022-08-07T09:39:54.627Z,24.70
2022-08-07T09:42:40.995Z,24.70
2022-08-07T09:47:25.421Z,23.70
2022-08-07T09:50:01.016Z,25.50
2022-08-07T09:52:09.661Z,26.10
2022-08-07T09:54:45.198Z,23.20
2022-08-07T09:57:15.642Z,22.80
2022-08-07T10:00:02.460Z,23.00
2022-08-07T10:03:08.554Z,24.30
2022-08-07T10:06:17.388Z,24.10
2022-08-07T10:09:34.250Z,27.30
2022-08-07T10:12:21.863Z,27.70
2022-08-07T10:15:15.078Z,23.50
2022-08-07T10:18:09.526Z,24.80
2022-08-07T10:20:53.532Z,23.50
2022-08-07T10:24:05.379Z,23.50
2022-08-07T10:26:53.543Z,26.10
2022-08-07T10:29:45.795Z,28.50
2022-08-07T10:32:53.379Z,27.50
2022-08-07T10:36:13.568Z,27.00
2022-08-07T10:38:54.821Z,25.00
2022-08-07T10:41:51.894Z,25.50
2022-08-07T10:44:45.884Z,25.20
2022-08-07T10:47:52.813Z,23.80
2022-08-07T10:50:49.868Z,24.20
2022-08-07T10:53:45.570Z,24.30
2022-08-07T10:56:31.125Z,25.40
2022-08-07T10:59:15.841Z,26.50
2022-08-07T11:02:11.959Z,28.40
2022-08-07T11:05:10.225Z,29.40
2022-08-07T11:08:02.887Z,30.00
2022-08-07T11:10:39.382Z,27.80
2022-08-07T11:14:45.667Z,28.80
2022-08-07T11:16:36.989Z,28.70
2022-08-07T11:19:21.432Z,27.50
2022-08-07T11:22:45.514Z,29.10
2022-08-07T11:25:24.982Z,26.60
2022-08-07T11:28:06.528Z,29.20
2022-08-07T11:31:08.775Z,29.30
2022-08-07T11:34:28.094Z,28.30
2022-08-07T11:37:19.142Z,30.50
2022-08-07T11:40:05.108Z,32.70
2022-08-07T11:42:59.105Z,32.10
2022-08-07T11:46:16.965Z,30.30
2022-08-07T11:49:04.380Z,31.50
2022-08-07T11:51:56.204Z,31.50
2022-08-07T11:54:55.099Z,29.20
2022-08-07T11:57:59.575Z,28.00
2022-08-07T12:00:20.242Z,28.30
2022-08-07T12:03:06.121Z,28.80
2022-08-07T12:05:48.886Z,29.80
2022-08-07T12:08:25.745Z,31.30
2022-08-07T12:11:24.443Z,31.10
2022-08-07T12:14:09.706Z,30.80
2022-08-07T12:16:44.761Z,31.50
2022-08-07T12:19:35.998Z,31.50
2022-08-07T12:22:56.485Z,30.00
2022-08-07T12:26:03.107Z,27.60
2022-08-07T12:28:45.200Z,31.90
2022-08-07T12:31:53.096Z,29.80
2022-08-07T12:34:26.678Z,29.50
2022-08-07T12:36:56.419Z,30.50
2022-08-07T12:39:43.724Z,31.70
2022-08-07T12:42:13.502Z,30.30
2022-08-07T12:44:44.911Z,29.00
2022-08-07T12:47:26.768Z,28.40
2022-08-07T12:50:39.346Z,27.30
2022-08-07T12:53:18.915Z,25.30
2022-08-07T12:56:03.660Z,26.20
2022-08-07T12:58:39.618Z,24.20
2022-08-07T13:01:27.965Z,23.70
2022-08-07T13:04:05.523Z,25.90
2022-08-07T13:07:09.165Z,23.40
2022-08-07T13:10:37.772Z,24.90
2022-08-07T13:13:46.834Z,26.70
2022-08-07T13:16:25.735Z,28.70
2022-08-07T13:19:21.866Z,31.50
2022-08-07T13:22:19.801Z,31.30
2022-08-07T13:25:10.478Z,31.20
2022-08-07T13:28:10.828Z,30.80
2022-08-07T13:30:48.982Z,29.70
2022-08-07T13:34:33.313Z,30.10
2022-08-07T13:36:26.089Z,27.40
2022-08-07T13:39:28.377Z,27.60
2022-08-07T13:42:03.119Z,26.10
2022-08-07T13:44:37.257Z,26.90
2022-08-07T13:47:09.391Z,29.90
2022-08-07T13:50:35.436Z,33.10
2022-08-07T13:52:41.424Z,29.00
2022-08-07T13:55:19.181Z,29.80
2022-08-07T13:57:59.256Z,27.40
2022-08-07T14:00:50.532Z,29.60
2022-08-07T14:03:30.109Z,29.60
2022-08-07T14:06:14.225Z,28.00
2022-08-07T14:08:48.765Z,29.20
2022-08-07T14:11:23.435Z,31.10
2022-08-07T14:13:57.921Z,32.10
2022-08-07T14:16:31.685Z,32.50
2022-08-07T14:19:03.121Z,30.10
2022-08-07T14:22:02.345Z,27.10
2022-08-07T14:24:29.422Z,25.40
2022-08-07T14:27:16.242Z,26.00
2022-08-07T14:30:09.382Z,26.20
2022-08-07T14:32:59.673Z,27.20
2022-08-07T14:35:43.037Z,30.00
2022-08-07T14:41:14.708Z,27.50
2022-08-07T14:43:59.292Z,31.60
2022-08-07T14:46:33.414Z,32.10
2022-08-07T14:49:56.171Z,31.00
2022-08-07T14:52:05.006Z,30.40
2022-08-07T14:57:54.397Z,31.50
2022-08-07T15:00:29.907Z,28.60
2022-08-07T15:02:59.307Z,29.90
2022-08-07T15:05:30.365Z,29.40
2022-08-07T15:07:58.989Z,29.60
2022-08-07T15:10:29.970Z,28.60
2022-08-07T15:13:25.429Z,29.50
2022-08-07T15:18:56.309Z,30.80
2022-08-07T15:21:58.659Z,27.30
2022-08-07T15:27:23.086Z,27.80
2022-08-07T15:30:09.145Z,29.30
2022-08-07T15:36:02.024Z,26.80
2022-08-07T15:38:32.952Z,27.00
2022-08-07T15:41:23.357Z,25.80
2022-08-07T15:44:01.298Z,24.70
2022-08-07T15:46:31.784Z,25.30
2022-08-07T15:49:14.259Z,25.30
2022-08-07T15:54:27.324Z,24.90
2022-08-07T15:56:59.863Z,25.30
2022-08-07T15:59:39.736Z,26.10
2022-08-07T16:02:15.050Z,26.40
2022-08-07T16:04:43.989Z,26.30
2022-08-07T16:08:33.456Z,26.00
2022-08-07T16:10:14.742Z,26.50
2022-08-07T16:13:39.541Z,26.60
2022-08-07T16:16:49.561Z,25.20
2022-08-07T16:19:19.627Z,25.50
2022-08-07T16:22:33.399Z,23.70
2022-08-07T16:25:23.063Z,23.60
2022-08-07T16:30:07.884Z,24.10
2022-08-07T16:31:13.189Z,23.50
2022-08-07T16:34:23.608Z,23.90
2022-08-07T16:38:04.443Z,24.80
2022-08-07T16:40:23.410Z,23.80
2022-08-07T16:43:24.084Z,23.30
2022-08-07T16:47:08.827Z,24.30
2022-08-07T16:50:20.720Z,24.60
2022-08-07T16:54:01.412Z,24.40
2022-08-07T16:56:18.708Z,23.60
2022-08-07T16:59:11.451Z,23.70
2022-08-07T17:02:05.569Z,22.90
2022-08-07T17:05:05.661Z,22.30
2022-08-07T17:07:51.535Z,22.70
2022-08-07T17:10:54.796Z,22.80
2022-08-07T17:14:19.124Z,22.50
2022-08-07T17:16:55.812Z,22.40
2022-08-07T17:20:02.654Z,22.20
2022-08-07T17:22:48.850Z,22.30
2022-08-07T17:25:20.497Z,21.80
2022-08-07T17:28:19.656Z,22.20
2022-08-07T17:31:16.619Z,22.00
2022-08-07T17:34:18.227Z,22.10
2022-08-07T17:37:09.206Z,22.00
2022-08-07T17:39:57.768Z,22.50
2022-08-07T17:42:59.814Z,22.10
2022-08-07T17:45:40.412Z,21.40
2022-08-07T17:48:30.447Z,21.60
2022-08-07T17:51:01.770Z,21.70
2022-08-07T17:54:00.408Z,21.60
2022-08-07T17:56:33.274Z,21.20
2022-08-07T17:59:03.831Z,21.20
2022-08-07T18:01:50.721Z,21.20
2022-08-07T18:04:44.840Z,21.10
2022-08-07T18:07:24.020Z,20.80
2022-08-07T18:10:05.675Z,20.90
2022-08-07T18:12:54.583Z,20.90
2022-08-07T18:15:23.437Z,20.90
2022-08-07T18:18:47.013Z,20.90
2022-08-07T18:21:37.336Z,20.80
2022-08-07T18:24:12.226Z,20.80
2022-08-07T18:27:07.654Z,20.70
2022-08-07T18:30:06.900Z,20.60
2022-08-07T18:33:10.839Z,20.60
2022-08-07T18:35:55.800Z,20.60
2022-08-07T18:38:55.357Z,20.50
2022-08-07T18:41:45.804Z,20.40
2022-08-07T18:44:45.990Z,20.40
2022-08-07T18:48:02.894Z,20.30
2022-08-07T18:50:46.682Z,20.30
2022-08-07T18:53:43.728Z,20.20
2022-08-07T18:57:06.164Z,20.00
2022-08-07T18:59:58.714Z,20.00
2022-08-07T19:02:45.057Z,20.10
2022-08-07T19:06:03.753Z,20.10
2022-08-07T19:08:33.620Z,19.90
2022-08-07T19:11:37.362Z,19.60
2022-08-07T19:14:11.549Z,19.50
2022-08-07T19:17:09.375Z,19.50
2022-08-07T19:20:29.294Z,19.60
2022-08-07T19:23:18.803Z,19.50
2022-08-07T19:26:23.696Z,19.50
2022-08-07T19:30:56.495Z,19.40
2022-08-07T19:31:58.540Z,19.40
2022-08-07T19:34:33.740Z,19.30
2022-08-07T19:37:10.009Z,19.20
2022-08-07T19:39:56.332Z,19.10
2022-08-07T19:42:40.501Z,19.00
2022-08-07T19:46:04.816Z,18.90
2022-08-07T19:48:18.785Z,18.70
2022-08-07T19:50:53.103Z,18.70
2022-08-07T19:54:31.422Z,18.70
2022-08-07T19:58:01.693Z,18.70
2022-08-07T19:59:00.379Z,18.80
2022-08-07T20:01:52.143Z,18.80
2022-08-07T20:04:31.456Z,18.70
2022-08-07T20:07:10.236Z,18.60
2022-08-07T20:10:35.891Z,18.80
2022-08-07T20:12:38.032Z,18.70
2022-08-07T20:15:19.046Z,18.50
2022-08-07T20:18:01.263Z,18.50
2022-08-07T20:20:32.689Z,18.40
2022-08-07T20:23:10.805Z,18.30
2022-08-07T20:25:53.135Z,18.30
2022-08-07T20:28:29.684Z,18.30
2022-08-07T20:30:57.199Z,18.20
2022-08-07T20:33:36.613Z,18.20
2022-08-07T20:36:07.962Z,18.40
2022-08-07T20:38:59.908Z,18.40
2022-08-07T20:41:34.284Z,18.50
2022-08-07T20:44:10.254Z,18.30
2022-08-07T20:46:43.891Z,18.60
2022-08-07T20:49:59.872Z,18.70
2022-08-07T20:52:14.281Z,18.70
2022-08-07T20:54:53.747Z,18.30
2022-08-07T20:57:24.904Z,18.20
2022-08-07T21:00:06.763Z,18.20
2022-08-07T21:02:59.234Z,18.10
2022-08-07T21:05:54.796Z,18.00
2022-08-07T21:09:01.069Z,18.30
2022-08-07T21:11:40.109Z,18.20
2022-08-07T21:14:33.318Z,18.20
2022-08-07T21:18:03.779Z,18.00
2022-08-07T21:20:09.910Z,18.20
2022-08-07T21:22:53.556Z,18.20
2022-08-07T21:25:38.977Z,18.10
2022-08-07T21:28:13.497Z,17.70
2022-08-07T21:31:12.485Z,17.90
2022-08-07T21:34:02.183Z,18.00
2022-08-07T21:36:40.059Z,18.00
2022-08-07T21:39:47.529Z,17.90
2022-08-07T21:42:49.303Z,17.70
2022-08-07T21:46:08.335Z,17.80
2022-08-07T21:48:56.743Z,17.80
2022-08-07T21:51:51.070Z,17.80
2022-08-07T21:54:33.775Z,17.90
2022-08-07T21:57:40.038Z,17.90
2022-08-07T22:00:19.181Z,17.90
2022-08-07T22:03:31.103Z,17.70
2022-08-07T22:06:07.885Z,17.60
2022-08-07T22:09:07.949Z,17.70
2022-08-07T22:12:05.850Z,17.60
2022-08-07T22:14:44.032Z,17.50
2022-08-07T22:17:36.114Z,17.50
2022-08-07T22:20:23.511Z,17.40
2022-08-07T22:22:58.953Z,17.40
2022-08-07T22:25:37.017Z,17.50
2022-08-07T22:28:32.198Z,17.50
2022-08-07T22:31:05.221Z,17.50
2022-08-07T22:33:55.949Z,17.60
2022-08-07T22:36:58.541Z,17.60
2022-08-07T22:39:53.452Z,17.60
2022-08-07T22:42:54.141Z,17.40
2022-08-07T22:46:40.483Z,17.40
2022-08-07T22:48:31.425Z,17.50
2022-08-07T22:51:18.540Z,17.30
2022-08-07T22:54:49.165Z,17.30
2022-08-07T22:57:40.853Z,17.40
2022-08-07T23:00:28.684Z,17.60
2022-08-07T23:02:55.899Z,17.50
2022-08-07T23:06:10.262Z,17.30
2022-08-07T23:08:30.245Z,17.40
2022-08-07T23:11:12.833Z,17.50
2022-08-07T23:14:10.516Z,17.40
2022-08-07T23:17:03.705Z,17.30
2022-08-07T23:19:57.982Z,17.20
2022-08-07T23:22:32.604Z,17.40
2022-08-07T23:25:30.163Z,17.20
2022-08-07T23:28:21.443Z,17.30
2022-08-07T23:31:18.665Z,17.00
2022-08-07T23:34:38.183Z,17.10
2022-08-07T23:38:00.463Z,17.10
2022-08-07T23:40:28.534Z,16.80
2022-08-07T23:43:04.237Z,16.70
2022-08-07T23:46:11.159Z,16.80
2022-08-07T23:49:07.853Z,16.80
2022-08-07T23:52:57.160Z,16.80
2022-08-07T23:55:02.162Z,16.80
2022-08-07T23:57:40.855Z,16.80
